Time;durP1;ratioP1;P1;durP2;ratioP2;P2;SDS_P1;SDS_P2;PMS_P1;PMS_P2;Temp;Humidity;BMP_temperature;BMP_pressure;BME280_temperature;BME280_humidity;BME280_pressure;Samples;Min_cycle;Max_cycle;Signal;HPM_P1;HPM_P2
2022/10/12 00:01:58;;;;;;;10.48;3.50;;;6.00;99.90;;;;;;5049233;28;20564;-85
2022/10/12 00:04:23;;;;;;;10.48;2.00;;;6.00;99.90;;;;;;5050468;28;20029;-85
2022/10/12 00:06:49;;;;;;;8.20;2.35;;;6.00;99.90;;;;;;5039568;28;20037;-84
2022/10/12 00:09:15;;;;;;;6.50;2.38;;;5.90;99.90;;;;;;5048608;28;20535;-85
2022/10/12 00:11:40;;;;;;;7.97;2.53;;;5.90;99.90;;;;;;5047941;28;20017;-84
2022/10/12 00:14:06;;;;;;;7.97;2.17;;;5.80;99.90;;;;;;5051757;28;20033;-85
2022/10/12 00:16:33;;;;;;;9.55;2.40;;;5.70;99.90;;;;;;5048678;28;20021;-85
2022/10/12 00:18:59;;;;;;;8.23;2.22;;;5.70;99.90;;;;;;5050695;28;20028;-85
2022/10/12 00:21:27;;;;;;;8.90;2.67;;;5.70;99.90;;;;;;5048285;28;20048;-85
2022/10/12 00:23:56;;;;;;;8.23;2.95;;;5.70;99.90;;;;;;5049854;28;20052;-85
2022/10/12 00:26:23;;;;;;;6.10;2.75;;;5.70;99.90;;;;;;5044136;28;20053;-85
2022/10/12 00:28:54;;;;;;;8.68;2.55;;;5.60;99.90;;;;;;5049617;28;20025;-85
2022/10/12 00:31:21;;;;;;;10.82;3.25;;;5.70;99.90;;;;;;5048593;28;20374;-85
2022/10/12 00:33:47;;;;;;;13.07;2.85;;;5.70;99.90;;;;;;5047771;28;20045;-85
2022/10/12 00:36:22;;;;;;;11.77;2.72;;;5.70;99.90;;;;;;5050508;28;20114;-85
2022/10/12 00:38:49;;;;;;;10.40;3.13;;;5.70;99.90;;;;;;5051065;28;20024;-85
2022/10/12 00:41:17;;;;;;;8.60;2.70;;;5.70;99.90;;;;;;5047723;28;20029;-85
2022/10/12 00:43:44;;;;;;;7.60;2.50;;;5.70;99.90;;;;;;5048640;28;20033;-85
2022/10/12 00:46:28;;;;;;;9.50;2.80;;;5.70;99.90;;;;;;5049776;28;20104;-85
2022/10/12 00:49:04;;;;;;;10.60;3.15;;;5.70;99.90;;;;;;5049043;28;20112;-86
2022/10/12 00:51:29;;;;;;;13.85;3.58;;;5.70;99.90;;;;;;5055286;28;20078;-86
2022/10/12 00:54:03;;;;;;;15.20;3.95;;;5.80;99.90;;;;;;5052833;28;20036;-84
2022/10/12 00:56:33;;;;;;;12.68;3.75;;;5.80;99.90;;;;;;5051519;28;20090;-86
2022/10/12 00:59:02;;;;;;;9.88;3.75;;;5.80;99.90;;;;;;5053512;28;20029;-85
2022/10/12 01:01:32;;;;;;;10.90;3.72;;;5.90;99.90;;;;;;5050376;28;20040;-85
2022/10/12 01:03:57;;;;;;;9.50;2.97;;;5.90;99.90;;;;;;5054251;28;20036;-85
2022/10/12 01:06:23;;;;;;;11.35;3.38;;;5.90;99.90;;;;;;5062046;28;20025;-85
2022/10/12 01:08:49;;;;;;;10.82;2.70;;;5.90;99.90;;;;;;5052165;28;20021;-85
2022/10/12 01:11:14;;;;;;;10.38;3.17;;;5.90;99.90;;;;;;5050062;28;20021;-86
2022/10/12 01:13:40;;;;;;;9.60;3.42;;;5.90;99.90;;;;;;5053393;28;20043;-85
2022/10/12 01:16:19;;;;;;;9.73;3.75;;;5.90;99.90;;;;;;5051719;28;20037;-85
2022/10/12 01:18:56;;;;;;;7.07;3.33;;;5.90;99.90;;;;;;5050902;28;20059;-85
2022/10/12 01:21:22;;;;;;;8.65;3.20;;;6.00;99.90;;;;;;5075717;28;20029;-85
2022/10/12 01:24:05;;;;;;;10.93;3.00;;;6.00;99.90;;;;;;5050466;28;20072;-85
2022/10/12 01:27:12;;;;;;;10.02;2.72;;;6.00;99.90;;;;;;5049878;28;20025;-85
2022/10/12 01:30:10;;;;;;;11.32;3.28;;;6.00;99.90;;;;;;5036205;28;20033;-86
2022/10/12 01:32:39;;;;;;;8.82;2.78;;;6.00;99.90;;;;;;5051186;28;20064;-84
2022/10/12 01:35:11;;;;;;;5.82;1.95;;;6.00;99.90;;;;;;5039285;28;20034;-86
2022/10/12 01:37:54;;;;;;;6.43;1.83;;;6.00;99.90;;;;;;5048255;28;20076;-85
2022/10/12 01:40:27;;;;;;;7.90;2.40;;;6.00;99.90;;;;;;5038085;28;20040;-85
2022/10/12 01:42:54;;;;;;;6.40;2.35;;;6.00;99.90;;;;;;5053427;28;20049;-85
2022/10/12 01:45:19;;;;;;;9.18;2.10;;;6.00;99.90;;;;;;5052401;28;20109;-85
2022/10/12 01:47:51;;;;;;;3.53;1.40;;;6.00;99.90;;;;;;5043705;28;20120;-85
2022/10/12 01:50:20;;;;;;;13.05;2.65;;;6.00;99.90;;;;;;5050579;28;20072;-85
2022/10/12 01:52:51;;;;;;;5.05;2.47;;;6.00;99.90;;;;;;5050535;28;20044;-86
2022/10/12 01:55:43;;;;;;;10.60;2.53;;;6.00;99.90;;;;;;5051142;28;20037;-86
2022/10/12 01:58:12;;;;;;;4.28;2.03;;;6.10;99.90;;;;;;5050460;28;20134;-86
2022/10/12 02:01:06;;;;;;;9.18;1.77;;;6.00;99.90;;;;;;5050810;28;20400;-85
2022/10/12 02:03:41;;;;;;;8.55;2.60;;;6.10;99.90;;;;;;5050937;28;20353;-86
2022/10/12 02:06:10;;;;;;;5.72;1.80;;;6.00;99.90;;;;;;5042690;28;20024;-85
2022/10/12 02:08:55;;;;;;;7.45;1.70;;;6.10;99.90;;;;;;5051283;28;20044;-86
2022/10/12 02:11:23;;;;;;;4.55;1.95;;;6.10;99.90;;;;;;5049478;28;20032;-86
2022/10/12 02:14:14;;;;;;;11.80;2.15;;;6.10;99.90;;;;;;5051382;28;20075;-86
2022/10/12 02:16:50;;;;;;;7.85;2.63;;;6.10;99.90;;;;;;5041637;28;20044;-86
2022/10/12 02:19:22;;;;;;;5.97;2.30;;;6.20;99.90;;;;;;5049620;28;20036;-86
2022/10/12 02:21:48;;;;;;;7.93;2.80;;;6.20;99.90;;;;;;5052666;28;20033;-85
2022/10/12 02:24:16;;;;;;;8.70;2.92;;;6.20;99.90;;;;;;5048697;28;20545;-86
2022/10/12 02:26:44;;;;;;;8.10;2.70;;;6.20;99.90;;;;;;5050931;28;20031;-86
2022/10/12 02:29:14;;;;;;;11.27;2.65;;;6.20;99.90;;;;;;5049982;28;20037;-86
2022/10/12 02:31:45;;;;;;;7.10;2.72;;;6.20;99.90;;;;;;5081283;28;20052;-86
2022/10/12 02:34:32;;;;;;;11.60;3.20;;;6.20;99.90;;;;;;5051766;28;20038;-86
2022/10/12 02:37:07;;;;;;;11.73;3.45;;;6.20;99.90;;;;;;5037745;28;20055;-86
2022/10/12 02:39:43;;;;;;;9.27;2.45;;;6.20;99.90;;;;;;5049964;28;20029;-86
2022/10/12 02:42:13;;;;;;;7.18;2.15;;;6.20;99.90;;;;;;5051795;28;20588;-86
2022/10/12 02:44:41;;;;;;;7.78;2.42;;;6.10;99.90;;;;;;5052006;28;20397;-86
2022/10/12 02:47:09;;;;;;;10.35;2.42;;;6.10;99.90;;;;;;5051048;28;20469;-86
2022/10/12 02:49:35;;;;;;;9.15;2.38;;;6.10;99.90;;;;;;5049705;28;20037;-86
2022/10/12 02:52:04;;;;;;;9.23;2.20;;;6.10;99.90;;;;;;5050854;28;20017;-86
2022/10/12 02:54:30;;;;;;;6.57;2.08;;;6.10;99.90;;;;;;5052524;28;20037;-86
2022/10/12 02:56:55;;;;;;;13.27;2.72;;;6.00;99.90;;;;;;5051188;28;20079;-86
2022/10/12 02:59:21;;;;;;;7.68;1.95;;;6.00;99.90;;;;;;5051289;28;20024;-86
2022/10/12 03:01:47;;;;;;;7.78;1.92;;;6.00;99.90;;;;;;5050988;28;20025;-86
2022/10/12 03:04:12;;;;;;;6.97;2.15;;;6.00;99.90;;;;;;5051341;28;20066;-85
2022/10/12 03:06:38;;;;;;;10.32;2.10;;;6.00;99.90;;;;;;5050960;28;20017;-86
2022/10/12 03:09:04;;;;;;;4.72;2.63;;;6.00;99.90;;;;;;5046786;28;20033;-86
2022/10/12 03:11:30;;;;;;;5.97;2.30;;;5.90;99.90;;;;;;5051363;28;20483;-86
2022/10/12 03:13:56;;;;;;;5.40;2.10;;;5.90;99.90;;;;;;5052367;28;20037;-86
2022/10/12 03:16:23;;;;;;;7.90;2.15;;;5.80;99.90;;;;;;5051092;28;20044;-86
2022/10/12 03:18:49;;;;;;;6.15;1.85;;;5.80;99.90;;;;;;5050318;28;20036;-86
2022/10/12 03:21:15;;;;;;;8.50;2.28;;;5.70;99.90;;;;;;5047546;28;20465;-86
2022/10/12 03:23:40;;;;;;;13.18;2.83;;;5.80;99.90;;;;;;5048374;28;20037;-86
2022/10/12 03:26:06;;;;;;;6.50;2.20;;;5.70;99.90;;;;;;5051352;28;20351;-86
2022/10/12 03:28:32;;;;;;;6.85;2.20;;;5.70;99.90;;;;;;5048243;28;20048;-86
2022/10/12 03:30:58;;;;;;;6.18;1.83;;;5.70;99.90;;;;;;5049346;28;20417;-86
2022/10/12 03:33:23;;;;;;;12.77;2.47;;;5.60;99.90;;;;;;5050486;28;20047;-85
2022/10/12 03:35:49;;;;;;;7.03;2.00;;;5.50;99.90;;;;;;5051038;28;20225;-86
2022/10/12 03:38:16;;;;;;;4.20;1.77;;;5.50;99.90;;;;;;5050193;28;20028;-86
2022/10/12 03:40:42;;;;;;;10.18;1.90;;;5.40;99.90;;;;;;5047000;28;20473;-85
2022/10/12 03:43:08;;;;;;;4.00;2.33;;;5.40;99.90;;;;;;5049232;28;20063;-86
2022/10/12 03:45:34;;;;;;;7.78;2.72;;;5.30;99.90;;;;;;5049669;28;20048;-86
2022/10/12 03:48:00;;;;;;;6.10;2.60;;;5.30;99.90;;;;;;5050087;28;20404;-86
2022/10/12 03:50:26;;;;;;;6.88;2.60;;;5.30;99.90;;;;;;5049914;28;20435;-86
2022/10/12 03:52:51;;;;;;;6.07;1.83;;;5.30;99.90;;;;;;5050466;28;20037;-86
2022/10/12 03:55:17;;;;;;;11.52;3.53;;;5.30;99.90;;;;;;5048941;28;20024;-86
2022/10/12 03:57:43;;;;;;;8.32;3.03;;;5.30;99.90;;;;;;5048986;28;20025;-86
2022/10/12 04:00:09;;;;;;;8.27;3.47;;;5.30;99.90;;;;;;5048686;28;20155;-85
2022/10/12 04:02:35;;;;;;;8.95;3.30;;;5.30;99.90;;;;;;5050687;28;20036;-86
2022/10/12 04:05:00;;;;;;;6.63;2.75;;;5.20;99.90;;;;;;5050695;28;20065;-86
2022/10/12 04:07:26;;;;;;;9.45;2.35;;;5.20;99.90;;;;;;5050426;28;20025;-85
2022/10/12 04:09:52;;;;;;;5.13;2.20;;;5.20;99.90;;;;;;5047172;28;20456;-86
2022/10/12 04:12:17;;;;;;;6.53;1.45;;;5.10;99.90;;;;;;5041409;28;20041;-85
2022/10/12 04:14:43;;;;;;;3.83;2.40;;;5.10;99.90;;;;;;5043974;28;20072;-85
2022/10/12 04:17:08;;;;;;;13.13;2.15;;;5.10;99.90;;;;;;5050075;28;20021;-85
2022/10/12 04:19:34;;;;;;;8.23;2.67;;;5.00;99.90;;;;;;5049160;28;20017;-85
2022/10/12 04:21:59;;;;;;;12.63;2.95;;;5.00;99.90;;;;;;5036595;28;20048;-85
2022/10/12 04:24:25;;;;;;;7.22;2.78;;;5.00;99.90;;;;;;5045673;28;20105;-84
2022/10/12 04:26:50;;;;;;;7.30;2.75;;;5.00;99.90;;;;;;5048194;28;20044;-85
2022/10/12 04:29:16;;;;;;;6.18;2.70;;;5.00;99.90;;;;;;5045328;28;20044;-84
2022/10/12 04:31:41;;;;;;;7.15;2.30;;;4.90;99.90;;;;;;5047403;28;20049;-85
2022/10/12 04:34:08;;;;;;;6.82;2.35;;;4.80;99.90;;;;;;5054875;28;20037;-85
2022/10/12 04:36:34;;;;;;;5.70;2.20;;;4.80;99.90;;;;;;5054735;28;20418;-85
2022/10/12 04:39:00;;;;;;;9.45;2.58;;;4.80;99.90;;;;;;5054088;28;20036;-85
2022/10/12 04:41:25;;;;;;;7.25;3.30;;;4.70;99.90;;;;;;5053554;28;20024;-85
2022/10/12 04:43:54;;;;;;;13.98;4.07;;;4.70;99.90;;;;;;5042457;28;20028;-85
2022/10/12 04:46:20;;;;;;;6.82;3.28;;;4.70;99.90;;;;;;5044934;28;20028;-85
2022/10/12 04:48:45;;;;;;;8.27;2.42;;;4.70;99.90;;;;;;5054139;28;20043;-85
2022/10/12 04:51:11;;;;;;;8.95;3.45;;;4.70;99.90;;;;;;5053759;28;20115;-85
2022/10/12 04:53:36;;;;;;;13.98;3.15;;;4.70;99.90;;;;;;5050624;28;20072;-85
2022/10/12 04:56:03;;;;;;;10.32;3.38;;;4.70;99.90;;;;;;5050383;28;20052;-85
2022/10/12 04:58:28;;;;;;;10.25;2.85;;;4.70;99.90;;;;;;5051355;28;20033;-85
2022/10/12 05:00:54;;;;;;;7.15;3.03;;;4.70;99.90;;;;;;5046793;28;20040;-85
2022/10/12 05:03:20;;;;;;;10.98;3.17;;;4.60;99.90;;;;;;5051516;28;20017;-84
2022/10/12 05:05:45;;;;;;;17.17;3.90;;;4.60;99.90;;;;;;5053128;28;20115;-85
2022/10/12 05:08:11;;;;;;;13.23;4.03;;;4.60;99.90;;;;;;5053102;28;20025;-85
2022/10/12 05:10:37;;;;;;;10.85;2.78;;;4.60;99.90;;;;;;5053020;28;20064;-85
2022/10/12 05:13:03;;;;;;;8.48;2.78;;;4.60;99.90;;;;;;5053239;28;20067;-85
2022/10/12 05:15:28;;;;;;;11.18;2.85;;;4.60;99.90;;;;;;5053661;28;20028;-86
2022/10/12 05:17:54;;;;;;;16.40;3.22;;;4.60;99.90;;;;;;5043934;28;20060;-86
2022/10/12 05:20:19;;;;;;;11.13;2.80;;;4.50;99.90;;;;;;5049135;28;20159;-85
2022/10/12 05:22:45;;;;;;;12.45;4.13;;;4.50;99.90;;;;;;5064592;28;20029;-86
2022/10/12 05:25:10;;;;;;;7.80;2.65;;;4.50;99.90;;;;;;5051448;28;20029;-86
2022/10/12 05:27:36;;;;;;;10.05;3.50;;;4.50;99.90;;;;;;5045607;28;20071;-86
2022/10/12 05:30:03;;;;;;;10.70;3.10;;;4.50;99.90;;;;;;5052151;28;20033;-86
2022/10/12 05:32:28;;;;;;;6.35;2.70;;;4.40;99.90;;;;;;5052973;28;20073;-86
2022/10/12 05:34:54;;;;;;;16.15;3.10;;;4.40;99.90;;;;;;5046433;28;20059;-86
2022/10/12 05:37:19;;;;;;;16.70;4.50;;;4.40;99.90;;;;;;5044183;28;20647;-85
2022/10/12 05:39:45;;;;;;;12.00;2.85;;;4.40;99.90;;;;;;5048981;28;20036;-86
2022/10/12 05:42:11;;;;;;;7.85;2.70;;;4.40;99.90;;;;;;5051731;28;20162;-85
2022/10/12 05:44:36;;;;;;;13.90;3.33;;;4.40;99.90;;;;;;5048739;28;20029;-85
2022/10/12 05:47:02;;;;;;;13.98;3.92;;;4.40;99.90;;;;;;5048702;28;20060;-85
2022/10/12 05:49:28;;;;;;;8.35;3.42;;;4.40;99.90;;;;;;5045832;28;20017;-84
2022/10/12 05:51:54;;;;;;;9.45;2.97;;;4.40;99.90;;;;;;5049771;28;20029;-83
2022/10/12 05:54:19;;;;;;;8.48;2.58;;;4.40;99.90;;;;;;5049120;28;20056;-85
2022/10/12 05:56:45;;;;;;;8.23;3.15;;;4.40;99.90;;;;;;5052867;28;20025;-84
2022/10/12 05:59:11;;;;;;;6.68;2.35;;;4.40;99.90;;;;;;5050036;28;20017;-85
2022/10/12 06:01:36;;;;;;;11.80;3.00;;;4.40;99.90;;;;;;5050464;28;20021;-85
2022/10/12 06:04:02;;;;;;;6.65;2.53;;;4.40;99.90;;;;;;5050991;28;20029;-86
2022/10/12 06:06:27;;;;;;;7.95;2.53;;;4.40;99.90;;;;;;5046303;28;20029;-83
2022/10/12 06:08:53;;;;;;;7.95;2.97;;;4.40;99.90;;;;;;5042690;28;20114;-84
2022/10/12 06:11:19;;;;;;;13.38;3.70;;;4.50;99.90;;;;;;5049918;28;20021;-84
2022/10/12 06:13:45;;;;;;;8.40;3.97;;;4.50;99.90;;;;;;5053044;28;20560;-84
2022/10/12 06:16:10;;;;;;;10.90;2.88;;;4.60;99.90;;;;;;5049235;28;20111;-83
2022/10/12 06:18:36;;;;;;;11.18;2.88;;;4.60;99.90;;;;;;5038585;28;20029;-84
2022/10/12 06:21:01;;;;;;;10.40;2.75;;;4.70;99.90;;;;;;5051888;28;20108;-84
2022/10/12 06:23:27;;;;;;;7.40;2.67;;;4.70;99.90;;;;;;5044880;28;20033;-84
2022/10/12 06:25:52;;;;;;;7.63;2.30;;;4.80;99.90;;;;;;5038452;28;20017;-84
2022/10/12 06:28:19;;;;;;;6.85;1.90;;;4.90;99.90;;;;;;5048279;28;20029;-84
2022/10/12 06:30:46;;;;;;;5.18;1.35;;;4.90;99.90;;;;;;5039935;28;20191;-85
2022/10/12 06:33:11;;;;;;;5.10;1.90;;;4.90;99.90;;;;;;5049843;28;20118;-85
2022/10/12 06:35:37;;;;;;;7.25;2.20;;;5.00;99.90;;;;;;5046048;28;20470;-84
2022/10/12 06:38:02;;;;;;;7.05;1.90;;;5.10;99.90;;;;;;5046637;28;20477;-84
2022/10/12 06:40:28;;;;;;;6.70;2.30;;;5.10;99.90;;;;;;5049382;28;20473;-85
2022/10/12 06:42:54;;;;;;;6.20;2.17;;;5.10;99.90;;;;;;5052448;28;20451;-85
2022/10/12 06:45:19;;;;;;;8.05;2.05;;;5.20;99.90;;;;;;5041235;28;20022;-84
2022/10/12 06:47:45;;;;;;;6.90;2.42;;;5.30;99.90;;;;;;5039776;28;20065;-85
2022/10/12 06:50:11;;;;;;;6.80;2.17;;;5.30;99.90;;;;;;5046897;28;20492;-85
2022/10/12 06:52:36;;;;;;;11.90;3.13;;;5.40;99.90;;;;;;5034921;28;20045;-84
2022/10/12 06:55:03;;;;;;;7.15;2.65;;;5.50;99.90;;;;;;5041386;28;20037;-85
2022/10/12 06:57:29;;;;;;;8.02;2.67;;;5.60;99.90;;;;;;5045707;28;20112;-85
2022/10/12 06:59:55;;;;;;;8.18;2.58;;;5.70;99.90;;;;;;5042694;28;20125;-85
2022/10/12 07:02:20;;;;;;;10.95;2.75;;;5.80;99.90;;;;;;5042644;28;20388;-85
2022/10/12 07:04:52;;;;;;;10.98;2.83;;;5.90;99.90;;;;;;5046232;28;20540;-85
2022/10/12 07:07:18;;;;;;;14.67;3.17;;;6.00;99.90;;;;;;5039555;28;20068;-85
2022/10/12 07:09:43;;;;;;;15.73;3.75;;;6.00;99.90;;;;;;5047539;28;20025;-85
2022/10/12 07:12:09;;;;;;;12.48;4.32;;;6.10;99.90;;;;;;5048919;28;20032;-85
2022/10/12 07:14:34;;;;;;;11.07;4.13;;;6.20;99.90;;;;;;5051556;28;20028;-85
2022/10/12 07:17:00;;;;;;;14.25;5.50;;;6.30;99.90;;;;;;5048595;28;20040;-85
2022/10/12 07:19:25;;;;;;;20.80;7.32;;;6.40;99.90;;;;;;5037651;28;20036;-85
2022/10/12 07:21:51;;;;;;;19.38;8.52;;;6.50;99.90;;;;;;5041884;28;20027;-85
2022/10/12 07:24:16;;;;;;;16.90;8.38;;;6.60;99.90;;;;;;5050583;28;20074;-84
2022/10/12 07:26:42;;;;;;;18.77;8.43;;;6.70;99.90;;;;;;5045327;28;20056;-85
2022/10/12 07:29:08;;;;;;;23.92;8.15;;;6.80;99.90;;;;;;5046328;28;20066;-84
2022/10/12 07:31:34;;;;;;;18.67;7.97;;;6.80;99.90;;;;;;5044828;28;20177;-83
2022/10/12 07:33:59;;;;;;;14.50;7.85;;;6.80;99.90;;;;;;5044223;28;20059;-85
2022/10/12 07:36:25;;;;;;;23.30;8.30;;;6.80;99.90;;;;;;5048138;28;20020;-86
2022/10/12 07:38:51;;;;;;;19.25;8.77;;;6.80;99.90;;;;;;5047324;28;20029;-85
2022/10/12 07:41:17;;;;;;;20.10;7.60;;;6.80;99.90;;;;;;5049544;28;20021;-85
2022/10/12 07:43:42;;;;;;;17.58;9.30;;;6.80;99.90;;;;;;5051147;28;20464;-84
2022/10/12 07:46:08;;;;;;;24.77;9.73;;;6.80;99.90;;;;;;5047713;28;20049;-85
2022/10/12 07:48:34;;;;;;;21.90;9.30;;;6.80;99.90;;;;;;5048470;28;20033;-85
2022/10/12 07:51:04;;;;;;;19.48;9.95;;;6.80;99.90;;;;;;5044732;28;20033;-84
2022/10/12 07:53:30;;;;;;;22.73;9.32;;;6.90;99.90;;;;;;5042802;28;20048;-84
2022/10/12 07:56:04;;;;;;;23.25;9.57;;;6.90;99.90;;;;;;5034615;28;20025;-83
2022/10/12 07:58:30;;;;;;;28.95;10.98;;;7.00;99.90;;;;;;5045638;28;20032;-82
2022/10/12 08:00:56;;;;;;;22.25;11.18;;;7.10;99.90;;;;;;5054414;28;20029;-83
2022/10/12 08:03:21;;;;;;;25.80;11.93;;;7.20;99.90;;;;;;5037975;28;20045;-83
2022/10/12 08:05:47;;;;;;;18.20;11.02;;;7.30;99.90;;;;;;5048608;28;20723;-83
2022/10/12 08:08:13;;;;;;;21.20;11.00;;;7.40;99.90;;;;;;5045400;28;20044;-84
2022/10/12 08:10:39;;;;;;;20.00;11.05;;;7.50;99.90;;;;;;5072979;28;20057;-83
2022/10/12 08:13:04;;;;;;;22.70;12.40;;;7.60;99.90;;;;;;5053052;28;20094;-84
2022/10/12 08:15:30;;;;;;;24.85;13.20;;;7.80;99.90;;;;;;5053848;28;20025;-83
2022/10/12 08:17:55;;;;;;;24.58;12.55;;;7.90;99.90;;;;;;5041735;28;20090;-84
2022/10/12 08:20:21;;;;;;;27.08;12.30;;;8.00;99.90;;;;;;5053471;28;20029;-84
2022/10/12 08:22:46;;;;;;;24.70;11.55;;;8.10;99.90;;;;;;5050409;28;20539;-84
2022/10/12 08:25:12;;;;;;;24.92;12.50;;;8.20;99.90;;;;;;5050623;28;20108;-84
2022/10/12 08:27:37;;;;;;;24.20;11.35;;;8.30;99.90;;;;;;5054960;28;20120;-85
2022/10/12 08:30:05;;;;;;;23.35;11.80;;;8.40;99.90;;;;;;5052328;28;20043;-84
2022/10/12 08:32:31;;;;;;;23.98;11.82;;;8.50;99.90;;;;;;5050516;28;20510;-84
2022/10/12 08:34:56;;;;;;;22.15;13.02;;;8.50;99.90;;;;;;5047825;28;20481;-84
2022/10/12 08:37:22;;;;;;;25.90;12.73;;;8.60;99.90;;;;;;5044867;28;20071;-85
2022/10/12 08:39:47;;;;;;;24.40;12.93;;;8.60;99.90;;;;;;5040986;28;20026;-85
2022/10/12 08:42:35;;;;;;;24.15;13.32;;;8.80;99.90;;;;;;5047169;28;20024;-84
2022/10/12 08:45:24;;;;;;;25.67;12.13;;;9.00;99.90;;;;;;5051097;28;20036;-85
2022/10/12 08:47:57;;;;;;;26.45;13.45;;;9.10;99.90;;;;;;5069777;28;20033;-85
2022/10/12 08:50:31;;;;;;;;;;;9.20;99.90;;;;;;5054921;28;20029;-85
2022/10/12 08:53:14;;;;;;;26.35;11.18;;;9.30;99.90;;;;;;5042463;28;19913;-85
2022/10/12 08:55:43;;;;;;;25.80;12.10;;;9.40;99.90;;;;;;5045985;28;20080;-86
2022/10/12 08:58:21;;;;;;;23.75;12.23;;;9.50;99.90;;;;;;5057582;28;20064;-85
2022/10/12 09:00:52;;;;;;;26.83;12.75;;;9.60;99.90;;;;;;5048025;28;20116;-84
2022/10/12 09:03:46;;;;;;;25.80;13.32;;;9.60;99.90;;;;;;5041523;28;20029;-85
2022/10/12 09:06:36;;;;;;;29.20;13.95;;;9.80;99.90;;;;;;5039556;28;20029;-85
2022/10/12 09:09:07;;;;;;;24.98;13.25;;;9.90;99.90;;;;;;5043206;28;20039;-85
2022/10/12 09:12:12;;;;;;;21.88;11.15;;;10.10;99.90;;;;;;5068610;28;20573;-85
2022/10/12 09:14:39;;;;;;;20.88;11.38;;;10.20;99.90;;;;;;5041940;28;22311;-85
2022/10/12 09:17:28;;;;;;;22.23;11.85;;;10.30;99.90;;;;;;5049413;28;20052;-85
2022/10/12 09:20:16;;;;;;;31.63;14.27;;;10.30;99.90;;;;;;5035275;28;20021;-85
2022/10/12 09:22:46;;;;;;;26.77;13.00;;;10.30;99.90;;;;;;5043599;28;20075;-85
2022/10/12 09:25:14;;;;;;;27.55;12.90;;;10.30;99.90;;;;;;5048817;28;20056;-85
2022/10/12 09:27:41;;;;;;;18.95;12.20;;;10.30;99.90;;;;;;5037340;28;20056;-85
2022/10/12 09:30:13;;;;;;;27.77;12.95;;;10.40;99.90;;;;;;5038961;28;20030;-85
2022/10/12 09:33:03;;;;;;;25.25;12.85;;;10.50;99.90;;;;;;5039385;28;20452;-85
2022/10/12 09:35:29;;;;;;;24.52;12.32;;;10.50;99.90;;;;;;5052053;28;20538;-85
2022/10/12 09:37:55;;;;;;;26.00;12.55;;;10.60;99.90;;;;;;5046922;28;20033;-84
2022/10/12 09:40:30;;;;;;;25.90;12.85;;;10.80;99.90;;;;;;5042668;28;20037;-85
2022/10/12 09:42:59;;;;;;;26.85;13.45;;;10.90;99.90;;;;;;5039605;28;20033;-85
2022/10/12 09:45:25;;;;;;;26.13;12.48;;;11.10;99.90;;;;;;5057037;28;20032;-86
2022/10/12 09:48:12;;;;;;;26.17;11.82;;;11.20;99.90;;;;;;5044236;28;20025;-85
2022/10/12 09:50:59;;;;;;;21.45;10.40;;;11.40;99.90;;;;;;5043918;28;20556;-83
2022/10/12 09:53:34;;;;;;;26.30;11.07;;;11.50;99.90;;;;;;5034747;28;20044;-84
2022/10/12 09:56:04;;;;;;;24.75;12.00;;;11.60;99.90;;;;;;5045296;28;20025;-84
2022/10/12 09:58:40;;;;;;;21.45;11.65;;;11.80;99.90;;;;;;5050294;28;20082;-84
2022/10/12 10:01:38;;;;;;;23.13;10.75;;;11.80;99.90;;;;;;5038427;28;20041;-85
2022/10/12 10:04:23;;;;;;;20.73;10.75;;;12.00;99.90;;;;;;4976314;28;20041;-85
2022/10/12 10:06:50;;;;;;;21.48;11.13;;;12.10;99.90;;;;;;5036865;28;20022;-86
2022/10/12 10:09:34;;;;;;;25.67;12.57;;;12.20;99.90;;;;;;5052155;28;20029;-85
2022/10/12 10:12:35;;;;;;;22.45;11.93;;;12.30;99.90;;;;;;5050600;28;20453;-86
2022/10/12 10:15:01;;;;;;;31.02;11.07;;;12.50;99.90;;;;;;5001276;28;20052;-86
2022/10/12 10:17:31;;;;;;;22.42;11.45;;;12.60;99.90;;;;;;5052398;28;20017;-86
2022/10/12 10:19:59;;;;;;;18.80;10.02;;;12.60;99.90;;;;;;5053852;28;20047;-86
2022/10/12 10:22:25;;;;;;;28.77;10.82;;;12.60;99.90;;;;;;5054130;28;20028;-86
2022/10/12 10:24:53;;;;;;;22.23;11.05;;;12.60;99.90;;;;;;5052445;28;20021;-85
2022/10/12 10:27:32;;;;;;;21.35;10.82;;;12.50;99.90;;;;;;5052875;28;20025;-85
2022/10/12 10:30:20;;;;;;;24.40;11.85;;;12.60;99.90;;;;;;5051717;28;20032;-86
2022/10/12 10:32:47;;;;;;;26.10;11.73;;;12.60;99.90;;;;;;5046258;28;20080;-86
2022/10/12 10:35:12;;;;;;;21.02;12.32;;;12.70;99.90;;;;;;5037975;28;20025;-86
2022/10/12 10:37:58;;;;;;;33.28;12.63;;;12.70;99.90;;;;;;5051838;28;20082;-86
2022/10/12 10:40:28;;;;;;;22.40;11.60;;;12.80;99.90;;;;;;5046195;28;20040;-87
2022/10/12 10:43:14;;;;;;;24.65;11.68;;;12.80;99.90;;;;;;5042759;28;20033;-85
2022/10/12 10:45:52;;;;;;;22.45;11.38;;;13.00;99.90;;;;;;5033588;28;20030;-86
2022/10/12 10:48:21;;;;;;;24.08;12.00;;;13.20;99.90;;;;;;5032304;28;20026;-87
2022/10/12 10:50:59;;;;;;;23.42;12.50;;;13.30;99.90;;;;;;5040969;28;20544;-87
2022/10/12 10:53:28;;;;;;;23.40;11.98;;;13.40;99.90;;;;;;5049284;28;20045;-87
2022/10/12 10:56:09;;;;;;;24.08;13.02;;;13.50;99.90;;;;;;5038257;28;20021;-86
2022/10/12 10:58:43;;;;;;;24.23;12.38;;;13.60;99.90;;;;;;5040303;28;20036;-86
2022/10/12 11:01:20;;;;;;;22.35;12.07;;;13.70;99.90;;;;;;5040752;28;20068;-87
2022/10/12 11:04:01;;;;;;;28.20;11.82;;;13.70;99.90;;;;;;5049713;28;20530;-86
2022/10/12 11:06:34;;;;;;;23.02;12.68;;;13.70;99.90;;;;;;5043442;28;20111;-87
2022/10/12 11:09:15;;;;;;;29.45;14.60;;;13.80;99.90;;;;;;5053446;28;20063;-86
2022/10/12 11:11:42;;;;;;;29.70;14.20;;;13.90;99.90;;;;;;5051216;28;20029;-87
2022/10/12 11:14:20;;;;;;;26.40;14.25;;;13.90;99.90;;;;;;5049964;28;20036;-87
2022/10/12 11:16:57;;;;;;;31.98;14.52;;;13.90;99.90;;;;;;5042461;28;20371;-87
2022/10/12 11:19:39;;;;;;;26.35;13.95;;;14.00;99.90;;;;;;5038840;28;20389;-87
2022/10/12 11:22:20;;;;;;;21.95;13.75;;;14.10;99.90;;;;;;5034746;28;20485;-87
2022/10/12 11:24:52;;;;;;;28.52;16.58;;;14.10;99.90;;;;;;5052837;28;20036;-86
2022/10/12 11:27:33;;;;;;;26.08;14.23;;;14.00;99.90;;;;;;5051626;28;20025;-86
2022/10/12 11:30:02;;;;;;;28.35;14.70;;;14.00;99.90;;;;;;5051490;28;20053;-87
2022/10/12 11:32:37;;;;;;;28.65;14.95;;;14.00;99.90;;;;;;5046488;28;20025;-86
2022/10/12 11:35:05;;;;;;;26.30;14.65;;;14.10;99.90;;;;;;5043642;28;20028;-87
2022/10/12 11:38:18;;;;;;;26.75;15.52;;;14.00;99.90;;;;;;5046539;28;20031;-86
2022/10/12 11:40:47;;;;;;;21.85;14.45;;;14.00;99.90;;;;;;4942379;28;20474;-86
2022/10/12 11:43:19;;;;;;;26.42;13.70;;;14.00;99.90;;;;;;4934518;29;20036;-84
2022/10/12 11:45:48;;;;;;;25.90;15.18;;;14.00;99.90;;;;;;4999555;28;20076;-86
2022/10/12 11:48:20;;;;;;;23.13;13.00;;;14.00;99.90;;;;;;5048778;28;20034;-87
2022/10/12 11:50:48;;;;;;;23.70;14.18;;;14.20;99.90;;;;;;5069109;28;20033;-87
2022/10/12 11:53:20;;;;;;;24.02;14.20;;;14.30;99.90;;;;;;5050320;28;20041;-85
2022/10/12 11:55:53;;;;;;;26.20;13.77;;;14.40;99.90;;;;;;5049216;28;20032;-87
2022/10/12 11:58:31;;;;;;;27.80;14.50;;;14.60;99.90;;;;;;5049362;28;20033;-87
2022/10/12 12:01:00;;;;;;;22.27;14.23;;;14.80;99.90;;;;;;5083667;28;20083;-87
2022/10/12 12:03:54;;;;;;;25.48;14.57;;;15.00;99.90;;;;;;5048308;28;20063;-87
2022/10/12 12:06:29;;;;;;;22.52;14.18;;;15.20;99.90;;;;;;5044699;28;20025;-87
2022/10/12 12:09:17;;;;;;;28.02;13.98;;;15.20;99.90;;;;;;5047049;28;20370;-87
2022/10/12 12:11:43;;;;;;;23.50;14.65;;;15.30;99.90;;;;;;5059687;28;20025;-85
2022/10/12 12:14:20;;;;;;;24.65;13.50;;;15.30;99.90;;;;;;5042747;28;20131;-87
2022/10/12 12:16:48;;;;;;;23.88;15.07;;;15.20;99.90;;;;;;5051435;28;20021;-87
2022/10/12 12:19:16;;;;;;;28.38;14.32;;;15.20;99.90;;;;;;5055129;28;20045;-87
2022/10/12 12:22:13;;;;;;;28.75;14.05;;;15.10;99.90;;;;;;5050565;28;20029;-87
2022/10/12 12:24:39;;;;;;;27.70;14.13;;;15.20;99.90;;;;;;5036995;28;20071;-87
2022/10/12 12:27:32;;;;;;;23.83;13.52;;;15.20;99.90;;;;;;5050425;28;20067;-86
2022/10/12 12:30:00;;;;;;;26.05;14.55;;;15.30;99.90;;;;;;5050741;28;20028;-87
2022/10/12 12:32:59;;;;;;;24.30;13.88;;;15.50;99.90;;;;;;5051918;28;20036;-85
2022/10/12 12:35:30;;;;;;;26.10;13.73;;;15.60;99.90;;;;;;5040060;28;20029;-87
2022/10/12 12:38:20;;;;;;;24.15;13.93;;;15.70;99.90;;;;;;5042638;28;20072;-86
2022/10/12 12:41:05;;;;;;;27.83;14.93;;;15.80;99.90;;;;;;5046464;28;20039;-87
2022/10/12 12:43:30;;;;;;;31.00;15.55;;;15.90;99.90;;;;;;5042994;28;20029;-87
2022/10/12 12:46:06;;;;;;;31.33;15.05;;;15.90;99.90;;;;;;5045186;28;20128;-86
2022/10/12 12:48:44;;;;;;;23.67;13.73;;;15.90;99.90;;;;;;5037807;28;20045;-87
2022/10/12 12:51:11;;;;;;;29.85;15.73;;;16.00;99.90;;;;;;5042322;28;20084;-87
2022/10/12 12:53:59;;;;;;;27.17;14.93;;;16.00;99.90;;;;;;5050830;28;20030;-88
2022/10/12 12:56:55;;;;;;;19.73;12.68;;;16.10;99.90;;;;;;5043909;28;20147;-87
2022/10/12 12:59:41;;;;;;;21.73;9.13;;;16.10;99.90;;;;;;5047611;28;20036;-87
2022/10/12 13:02:29;;;;;;;17.23;8.40;;;16.10;99.90;;;;;;5045400;28;20024;-87